sensor_id;sensor_type;location;lat;lon;timestamp;P1;durP1;ratioP1;P2;durP2;ratioP2
7583;SDS011;3833;41.764;26.204;2023-01-28T00:01:53;17.03;;;13.20;;
7583;SDS011;3833;41.764;26.204;2023-01-28T00:04:20;16.13;;;12.97;;
7583;SDS011;3833;41.764;26.204;2023-01-28T00:06:47;17.67;;;11.77;;
7583;SDS011;3833;41.764;26.204;2023-01-28T00:09:15;15.93;;;11.43;;
7583;SDS011;3833;41.764;26.204;2023-01-28T00:11:42;12.17;;;10.53;;
7583;SDS011;3833;41.764;26.204;2023-01-28T00:14:09;13.83;;;11.03;;
7583;SDS011;3833;41.764;26.204;2023-01-28T00:16:37;11.57;;;9.83;;
7583;SDS011;3833;41.764;26.204;2023-01-28T00:19:03;13.50;;;9.97;;
7583;SDS011;3833;41.764;26.204;2023-01-28T00:21:30;13.00;;;10.67;;
7583;SDS011;3833;41.764;26.204;2023-01-28T00:23:57;14.07;;;10.17;;
7583;SDS011;3833;41.764;26.204;2023-01-28T00:26:25;11.37;;;9.70;;
7583;SDS011;3833;41.764;26.204;2023-01-28T00:28:52;9.83;;;8.83;;
7583;SDS011;3833;41.764;26.204;2023-01-28T00:31:20;11.40;;;8.77;;
7583;SDS011;3833;41.764;26.204;2023-01-28T00:33:48;10.63;;;8.97;;
7583;SDS011;3833;41.764;26.204;2023-01-28T00:36:17;11.00;;;9.10;;
7583;SDS011;3833;41.764;26.204;2023-01-28T00:38:48;10.57;;;8.73;;
7583;SDS011;3833;41.764;26.204;2023-01-28T00:41:16;10.50;;;9.03;;
7583;SDS011;3833;41.764;26.204;2023-01-28T00:43:47;8.73;;;7.47;;
7583;SDS011;3833;41.764;26.204;2023-01-28T00:46:14;8.90;;;7.77;;
7583;SDS011;3833;41.764;26.204;2023-01-28T00:48:42;7.73;;;6.90;;
7583;SDS011;3833;41.764;26.204;2023-01-28T00:51:10;7.97;;;7.13;;
7583;SDS011;3833;41.764;26.204;2023-01-28T00:53:38;9.83;;;8.03;;
7583;SDS011;3833;41.764;26.204;2023-01-28T00:56:05;9.80;;;7.87;;
7583;SDS011;3833;41.764;26.204;2023-01-28T00:58:33;10.80;;;7.60;;
7583;SDS011;3833;41.764;26.204;2023-01-28T01:01:06;9.07;;;8.00;;
7583;SDS011;3833;41.764;26.204;2023-01-28T01:03:34;8.40;;;7.07;;
7583;SDS011;3833;41.764;26.204;2023-01-28T01:06:01;8.73;;;7.83;;
7583;SDS011;3833;41.764;26.204;2023-01-28T01:08:28;9.20;;;7.60;;
7583;SDS011;3833;41.764;26.204;2023-01-28T01:11:00;8.40;;;7.60;;
7583;SDS011;3833;41.764;26.204;2023-01-28T01:13:27;10.00;;;7.43;;
7583;SDS011;3833;41.764;26.204;2023-01-28T01:16:04;8.60;;;7.70;;
7583;SDS011;3833;41.764;26.204;2023-01-28T01:18:34;8.13;;;7.33;;
7583;SDS011;3833;41.764;26.204;2023-01-28T01:21:06;8.43;;;7.57;;
7583;SDS011;3833;41.764;26.204;2023-01-28T01:23:34;10.03;;;8.43;;
7583;SDS011;3833;41.764;26.204;2023-01-28T01:26:01;10.50;;;8.07;;
7583;SDS011;3833;41.764;26.204;2023-01-28T01:28:28;8.70;;;7.80;;
7583;SDS011;3833;41.764;26.204;2023-01-28T01:30:58;8.60;;;7.70;;
7583;SDS011;3833;41.764;26.204;2023-01-28T01:33:28;9.10;;;8.20;;
7583;SDS011;3833;41.764;26.204;2023-01-28T01:35:56;10.67;;;9.10;;
7583;SDS011;3833;41.764;26.204;2023-01-28T01:38:23;11.13;;;9.07;;
7583;SDS011;3833;41.764;26.204;2023-01-28T01:40:50;9.47;;;8.50;;
7583;SDS011;3833;41.764;26.204;2023-01-28T01:43:17;9.93;;;8.83;;
7583;SDS011;3833;41.764;26.204;2023-01-28T01:45:45;10.50;;;9.40;;
7583;SDS011;3833;41.764;26.204;2023-01-28T01:48:16;10.70;;;8.93;;
7583;SDS011;3833;41.764;26.204;2023-01-28T01:50:48;11.77;;;9.57;;
7583;SDS011;3833;41.764;26.204;2023-01-28T01:53:19;9.07;;;8.17;;
7583;SDS011;3833;41.764;26.204;2023-01-28T01:55:49;10.57;;;9.47;;
7583;SDS011;3833;41.764;26.204;2023-01-28T01:58:20;10.87;;;9.77;;
7583;SDS011;3833;41.764;26.204;2023-01-28T02:00:51;10.27;;;9.27;;
7583;SDS011;3833;41.764;26.204;2023-01-28T02:03:18;8.87;;;7.97;;
7583;SDS011;3833;41.764;26.204;2023-01-28T02:05:53;10.03;;;8.93;;
7583;SDS011;3833;41.764;26.204;2023-01-28T02:08:20;10.27;;;8.97;;
7583;SDS011;3833;41.764;26.204;2023-01-28T02:10:47;9.77;;;8.80;;
7583;SDS011;3833;41.764;26.204;2023-01-28T02:13:16;10.20;;;8.43;;
7583;SDS011;3833;41.764;26.204;2023-01-28T02:15:44;10.90;;;8.83;;
7583;SDS011;3833;41.764;26.204;2023-01-28T02:18:11;11.93;;;9.47;;
7583;SDS011;3833;41.764;26.204;2023-01-28T02:20:42;11.40;;;10.20;;
7583;SDS011;3833;41.764;26.204;2023-01-28T02:29:17;12.17;;;9.57;;
7583;SDS011;3833;41.764;26.204;2023-01-28T02:31:51;10.80;;;9.77;;
7583;SDS011;3833;41.764;26.204;2023-01-28T02:34:26;11.20;;;10.00;;
7583;SDS011;3833;41.764;26.204;2023-01-28T02:37:02;10.27;;;9.13;;
7583;SDS011;3833;41.764;26.204;2023-01-28T02:39:34;13.07;;;9.97;;
7583;SDS011;3833;41.764;26.204;2023-01-28T02:42:06;9.57;;;8.57;;
7583;SDS011;3833;41.764;26.204;2023-01-28T02:44:40;10.97;;;9.53;;
7583;SDS011;3833;41.764;26.204;2023-01-28T02:47:08;11.93;;;9.80;;
7583;SDS011;3833;41.764;26.204;2023-01-28T02:49:53;10.40;;;9.37;;
7583;SDS011;3833;41.764;26.204;2023-01-28T02:52:31;10.57;;;9.47;;
7583;SDS011;3833;41.764;26.204;2023-01-28T02:55:29;10.83;;;8.97;;
7583;SDS011;3833;41.764;26.204;2023-01-28T02:58:02;9.63;;;8.57;;
7583;SDS011;3833;41.764;26.204;2023-01-28T03:00:39;10.70;;;9.00;;
7583;SDS011;3833;41.764;26.204;2023-01-28T03:03:13;9.20;;;8.23;;
7583;SDS011;3833;41.764;26.204;2023-01-28T03:05:44;9.03;;;8.13;;
7583;SDS011;3833;41.764;26.204;2023-01-28T03:08:31;9.00;;;7.80;;
7583;SDS011;3833;41.764;26.204;2023-01-28T03:11:18;7.90;;;7.13;;
7583;SDS011;3833;41.764;26.204;2023-01-28T03:14:03;8.27;;;7.47;;
7583;SDS011;3833;41.764;26.204;2023-01-28T03:16:50;7.73;;;6.93;;
7583;SDS011;3833;41.764;26.204;2023-01-28T03:19:36;8.70;;;7.80;;
7583;SDS011;3833;41.764;26.204;2023-01-28T03:22:20;10.03;;;8.43;;
7583;SDS011;3833;41.764;26.204;2023-01-28T03:25:07;9.43;;;8.43;;
7583;SDS011;3833;41.764;26.204;2023-01-28T03:27:52;11.33;;;10.00;;
7583;SDS011;3833;41.764;26.204;2023-01-28T03:30:41;10.67;;;9.00;;
7583;SDS011;3833;41.764;26.204;2023-01-28T03:33:31;11.20;;;9.83;;
7583;SDS011;3833;41.764;26.204;2023-01-28T03:36:18;11.20;;;9.73;;
7583;SDS011;3833;41.764;26.204;2023-01-28T03:39:03;11.00;;;9.43;;
7583;SDS011;3833;41.764;26.204;2023-01-28T03:41:30;10.67;;;9.37;;
7583;SDS011;3833;41.764;26.204;2023-01-28T03:43:57;12.13;;;10.30;;
7583;SDS011;3833;41.764;26.204;2023-01-28T03:46:42;10.87;;;9.20;;
7583;SDS011;3833;41.764;26.204;2023-01-28T03:49:10;11.23;;;9.03;;
7583;SDS011;3833;41.764;26.204;2023-01-28T03:51:37;11.60;;;10.03;;
7583;SDS011;3833;41.764;26.204;2023-01-28T03:54:05;11.33;;;10.13;;
7583;SDS011;3833;41.764;26.204;2023-01-28T03:56:32;11.93;;;10.13;;
7583;SDS011;3833;41.764;26.204;2023-01-28T03:59:01;10.93;;;9.67;;
7583;SDS011;3833;41.764;26.204;2023-01-28T04:01:28;10.70;;;9.07;;
7583;SDS011;3833;41.764;26.204;2023-01-28T04:03:55;10.77;;;9.33;;
7583;SDS011;3833;41.764;26.204;2023-01-28T04:06:23;10.60;;;9.43;;
7583;SDS011;3833;41.764;26.204;2023-01-28T04:08:50;10.53;;;8.73;;
7583;SDS011;3833;41.764;26.204;2023-01-28T04:11:18;10.43;;;9.27;;
7583;SDS011;3833;41.764;26.204;2023-01-28T04:13:46;11.60;;;9.00;;
7583;SDS011;3833;41.764;26.204;2023-01-28T04:16:14;9.93;;;8.93;;
7583;SDS011;3833;41.764;26.204;2023-01-28T04:18:43;10.97;;;9.13;;
7583;SDS011;3833;41.764;26.204;2023-01-28T04:21:10;10.97;;;8.83;;
7583;SDS011;3833;41.764;26.204;2023-01-28T04:23:39;10.97;;;9.27;;
7583;SDS011;3833;41.764;26.204;2023-01-28T04:26:05;10.63;;;8.77;;
7583;SDS011;3833;41.764;26.204;2023-01-28T04:28:32;11.07;;;9.20;;
7583;SDS011;3833;41.764;26.204;2023-01-28T04:30:59;11.87;;;10.57;;
7583;SDS011;3833;41.764;26.204;2023-01-28T04:33:26;13.43;;;10.70;;
7583;SDS011;3833;41.764;26.204;2023-01-28T04:35:53;12.90;;;11.37;;
7583;SDS011;3833;41.764;26.204;2023-01-28T04:38:20;12.83;;;11.33;;
7583;SDS011;3833;41.764;26.204;2023-01-28T04:40:51;14.23;;;11.43;;
7583;SDS011;3833;41.764;26.204;2023-01-28T04:43:18;16.63;;;13.30;;
7583;SDS011;3833;41.764;26.204;2023-01-28T04:45:45;13.80;;;12.33;;
7583;SDS011;3833;41.764;26.204;2023-01-28T04:48:12;13.03;;;11.63;;
7583;SDS011;3833;41.764;26.204;2023-01-28T04:50:41;13.53;;;10.70;;
7583;SDS011;3833;41.764;26.204;2023-01-28T04:53:09;12.73;;;11.03;;
7583;SDS011;3833;41.764;26.204;2023-01-28T04:55:37;14.83;;;11.87;;
7583;SDS011;3833;41.764;26.204;2023-01-28T04:58:05;11.80;;;10.60;;
7583;SDS011;3833;41.764;26.204;2023-01-28T05:00:32;13.43;;;11.63;;
7583;SDS011;3833;41.764;26.204;2023-01-28T05:02:59;12.87;;;11.17;;
7583;SDS011;3833;41.764;26.204;2023-01-28T05:05:26;19.27;;;13.87;;
7583;SDS011;3833;41.764;26.204;2023-01-28T05:07:53;12.00;;;10.70;;
7583;SDS011;3833;41.764;26.204;2023-01-28T05:10:21;13.87;;;11.60;;
7583;SDS011;3833;41.764;26.204;2023-01-28T05:12:48;12.43;;;10.70;;
7583;SDS011;3833;41.764;26.204;2023-01-28T05:15:17;15.17;;;11.70;;
7583;SDS011;3833;41.764;26.204;2023-01-28T05:17:44;14.57;;;11.37;;
7583;SDS011;3833;41.764;26.204;2023-01-28T05:20:11;11.07;;;9.73;;
7583;SDS011;3833;41.764;26.204;2023-01-28T05:22:39;12.10;;;10.03;;
7583;SDS011;3833;41.764;26.204;2023-01-28T05:25:07;11.00;;;9.73;;
7583;SDS011;3833;41.764;26.204;2023-01-28T05:27:35;11.77;;;10.63;;
7583;SDS011;3833;41.764;26.204;2023-01-28T05:30:02;11.90;;;10.57;;
7583;SDS011;3833;41.764;26.204;2023-01-28T05:32:32;15.27;;;11.50;;
7583;SDS011;3833;41.764;26.204;2023-01-28T05:34:58;12.53;;;10.50;;
7583;SDS011;3833;41.764;26.204;2023-01-28T05:37:25;11.60;;;10.37;;
7583;SDS011;3833;41.764;26.204;2023-01-28T05:39:52;10.90;;;9.40;;
7583;SDS011;3833;41.764;26.204;2023-01-28T05:42:19;13.83;;;11.53;;
7583;SDS011;3833;41.764;26.204;2023-01-28T05:44:46;14.27;;;12.40;;
7583;SDS011;3833;41.764;26.204;2023-01-28T05:47:13;13.27;;;11.23;;
7583;SDS011;3833;41.764;26.204;2023-01-28T05:49:41;17.80;;;16.00;;
7583;SDS011;3833;41.764;26.204;2023-01-28T05:52:08;15.77;;;13.17;;
7583;SDS011;3833;41.764;26.204;2023-01-28T05:54:35;21.57;;;16.13;;
7583;SDS011;3833;41.764;26.204;2023-01-28T05:57:02;25.37;;;20.20;;
7583;SDS011;3833;41.764;26.204;2023-01-28T05:59:29;15.70;;;13.23;;
7583;SDS011;3833;41.764;26.204;2023-01-28T06:01:55;15.07;;;12.93;;
7583;SDS011;3833;41.764;26.204;2023-01-28T06:04:22;15.00;;;12.37;;
7583;SDS011;3833;41.764;26.204;2023-01-28T06:06:50;15.17;;;13.27;;
7583;SDS011;3833;41.764;26.204;2023-01-28T06:09:17;15.90;;;13.90;;
7583;SDS011;3833;41.764;26.204;2023-01-28T06:11:44;13.63;;;12.23;;
7583;SDS011;3833;41.764;26.204;2023-01-28T06:14:11;13.97;;;11.80;;
7583;SDS011;3833;41.764;26.204;2023-01-28T06:16:38;14.80;;;11.87;;
7583;SDS011;3833;41.764;26.204;2023-01-28T06:19:04;12.43;;;11.13;;
7583;SDS011;3833;41.764;26.204;2023-01-28T06:21:31;13.77;;;11.50;;
7583;SDS011;3833;41.764;26.204;2023-01-28T06:24:00;11.93;;;10.73;;
7583;SDS011;3833;41.764;26.204;2023-01-28T06:26:26;13.30;;;11.47;;
7583;SDS011;3833;41.764;26.204;2023-01-28T06:28:53;12.73;;;10.80;;
7583;SDS011;3833;41.764;26.204;2023-01-28T06:31:20;10.90;;;9.77;;
7583;SDS011;3833;41.764;26.204;2023-01-28T06:33:47;10.73;;;9.23;;
7583;SDS011;3833;41.764;26.204;2023-01-28T06:36:14;13.53;;;9.30;;
7583;SDS011;3833;41.764;26.204;2023-01-28T06:38:41;10.87;;;9.73;;
7583;SDS011;3833;41.764;26.204;2023-01-28T06:41:09;9.83;;;8.83;;
7583;SDS011;3833;41.764;26.204;2023-01-28T06:43:37;11.17;;;9.97;;
7583;SDS011;3833;41.764;26.204;2023-01-28T06:46:04;9.03;;;8.13;;
7583;SDS011;3833;41.764;26.204;2023-01-28T06:48:31;9.57;;;8.57;;
7583;SDS011;3833;41.764;26.204;2023-01-28T06:50:57;7.80;;;7.00;;
7583;SDS011;3833;41.764;26.204;2023-01-28T06:53:24;8.10;;;7.30;;
7583;SDS011;3833;41.764;26.204;2023-01-28T06:55:51;6.90;;;6.23;;
7583;SDS011;3833;41.764;26.204;2023-01-28T06:58:19;7.50;;;6.13;;
7583;SDS011;3833;41.764;26.204;2023-01-28T07:00:46;5.10;;;4.60;;
7583;SDS011;3833;41.764;26.204;2023-01-28T07:03:13;5.97;;;5.47;;
7583;SDS011;3833;41.764;26.204;2023-01-28T07:05:40;5.80;;;5.20;;
7583;SDS011;3833;41.764;26.204;2023-01-28T07:08:07;9.93;;;8.77;;
7583;SDS011;3833;41.764;26.204;2023-01-28T07:10:33;8.80;;;7.60;;
7583;SDS011;3833;41.764;26.204;2023-01-28T07:13:01;6.73;;;6.13;;
7583;SDS011;3833;41.764;26.204;2023-01-28T07:15:29;5.83;;;5.30;;
7583;SDS011;3833;41.764;26.204;2023-01-28T07:17:56;5.20;;;4.70;;
7583;SDS011;3833;41.764;26.204;2023-01-28T07:20:23;4.63;;;4.00;;
7583;SDS011;3833;41.764;26.204;2023-01-28T07:22:49;4.87;;;4.47;;
7583;SDS011;3833;41.764;26.204;2023-01-28T07:25:16;4.57;;;4.17;;
7583;SDS011;3833;41.764;26.204;2023-01-28T07:27:47;3.50;;;3.13;;
7583;SDS011;3833;41.764;26.204;2023-01-28T07:30:15;3.40;;;3.10;;
7583;SDS011;3833;41.764;26.204;2023-01-28T07:32:45;3.63;;;3.30;;
7583;SDS011;3833;41.764;26.204;2023-01-28T07:35:12;2.97;;;2.77;;
7583;SDS011;3833;41.764;26.204;2023-01-28T07:37:40;2.77;;;2.57;;
7583;SDS011;3833;41.764;26.204;2023-01-28T07:40:07;2.73;;;2.53;;
7583;SDS011;3833;41.764;26.204;2023-01-28T07:42:35;3.60;;;3.30;;
7583;SDS011;3833;41.764;26.204;2023-01-28T07:45:02;3.50;;;3.20;;
7583;SDS011;3833;41.764;26.204;2023-01-28T07:47:30;3.00;;;2.80;;
7583;SDS011;3833;41.764;26.204;2023-01-28T07:49:59;2.93;;;2.73;;
7583;SDS011;3833;41.764;26.204;2023-01-28T07:52:26;3.47;;;3.27;;
7583;SDS011;3833;41.764;26.204;2023-01-28T07:54:52;3.60;;;3.30;;
7583;SDS011;3833;41.764;26.204;2023-01-28T07:57:19;3.50;;;3.30;;
7583;SDS011;3833;41.764;26.204;2023-01-28T07:59:48;3.67;;;3.37;;
7583;SDS011;3833;41.764;26.204;2023-01-28T08:02:16;3.37;;;3.17;;
7583;SDS011;3833;41.764;26.204;2023-01-28T08:04:43;3.87;;;3.67;;
7583;SDS011;3833;41.764;26.204;2023-01-28T08:07:12;3.53;;;3.27;;
7583;SDS011;3833;41.764;26.204;2023-01-28T08:09:39;6.93;;;6.20;;
7583;SDS011;3833;41.764;26.204;2023-01-28T08:12:06;4.40;;;4.10;;
7583;SDS011;3833;41.764;26.204;2023-01-28T08:14:33;4.63;;;4.23;;
7583;SDS011;3833;41.764;26.204;2023-01-28T08:17:00;4.60;;;4.20;;
7583;SDS011;3833;41.764;26.204;2023-01-28T08:19:27;4.83;;;4.43;;
7583;SDS011;3833;41.764;26.204;2023-01-28T08:21:53;3.43;;;3.23;;
7583;SDS011;3833;41.764;26.204;2023-01-28T08:24:22;4.87;;;4.47;;
7583;SDS011;3833;41.764;26.204;2023-01-28T08:26:48;5.40;;;5.00;;
7583;SDS011;3833;41.764;26.204;2023-01-28T08:29:15;3.53;;;3.23;;
7583;SDS011;3833;41.764;26.204;2023-01-28T08:31:42;3.60;;;3.27;;
7583;SDS011;3833;41.764;26.204;2023-01-28T08:34:09;3.33;;;3.10;;
7583;SDS011;3833;41.764;26.204;2023-01-28T08:36:36;5.97;;;5.47;;
7583;SDS011;3833;41.764;26.204;2023-01-28T08:39:03;9.83;;;8.83;;
7583;SDS011;3833;41.764;26.204;2023-01-28T08:41:31;3.20;;;3.00;;
7583;SDS011;3833;41.764;26.204;2023-01-28T08:43:58;4.47;;;4.03;;
7583;SDS011;3833;41.764;26.204;2023-01-28T08:46:25;9.53;;;6.30;;
7583;SDS011;3833;41.764;26.204;2023-01-28T08:48:52;5.90;;;5.40;;
7583;SDS011;3833;41.764;26.204;2023-01-28T08:51:19;5.07;;;4.77;;
7583;SDS011;3833;41.764;26.204;2023-01-28T08:53:46;8.53;;;7.80;;
7583;SDS011;3833;41.764;26.204;2023-01-28T08:56:12;9.10;;;8.20;;
7583;SDS011;3833;41.764;26.204;2023-01-28T08:58:42;12.30;;;11.03;;
7583;SDS011;3833;41.764;26.204;2023-01-28T09:01:09;8.50;;;7.70;;
7583;SDS011;3833;41.764;26.204;2023-01-28T09:03:36;6.83;;;6.33;;
7583;SDS011;3833;41.764;26.204;2023-01-28T09:06:03;6.60;;;6.27;;
7583;SDS011;3833;41.764;26.204;2023-01-28T09:08:30;8.90;;;8.50;;
7583;SDS011;3833;41.764;26.204;2023-01-28T09:10:57;11.00;;;10.50;;
7583;SDS011;3833;41.764;26.204;2023-01-28T09:13:25;7.90;;;7.50;;
7583;SDS011;3833;41.764;26.204;2023-01-28T09:15:54;8.77;;;8.23;;
7583;SDS011;3833;41.764;26.204;2023-01-28T09:18:21;11.47;;;10.87;;
7583;SDS011;3833;41.764;26.204;2023-01-28T09:20:48;11.90;;;10.90;;
7583;SDS011;3833;41.764;26.204;2023-01-28T09:23:15;10.63;;;9.93;;
7583;SDS011;3833;41.764;26.204;2023-01-28T09:25:42;13.40;;;12.50;;
7583;SDS011;3833;41.764;26.204;2023-01-28T09:28:09;15.43;;;14.63;;
7583;SDS011;3833;41.764;26.204;2023-01-28T09:30:36;14.73;;;13.73;;
7583;SDS011;3833;41.764;26.204;2023-01-28T09:33:05;22.03;;;19.73;;
7583;SDS011;3833;41.764;26.204;2023-01-28T09:35:32;26.10;;;23.97;;
7583;SDS011;3833;41.764;26.204;2023-01-28T09:38:00;26.77;;;24.60;;
7583;SDS011;3833;41.764;26.204;2023-01-28T09:40:30;38.27;;;34.27;;
7583;SDS011;3833;41.764;26.204;2023-01-28T09:46:14;31.20;;;28.80;;
7583;SDS011;3833;41.764;26.204;2023-01-28T09:48:45;50.33;;;44.27;;
7583;SDS011;3833;41.764;26.204;2023-01-28T09:51:27;43.33;;;39.43;;
7583;SDS011;3833;41.764;26.204;2023-01-28T09:53:58;67.47;;;54.27;;
7583;SDS011;3833;41.764;26.204;2023-01-28T09:56:29;79.90;;;62.27;;
7583;SDS011;3833;41.764;26.204;2023-01-28T09:58:57;27.47;;;25.57;;
7583;SDS011;3833;41.764;26.204;2023-01-28T10:01:38;27.33;;;25.87;;
7583;SDS011;3833;41.764;26.204;2023-01-28T10:04:14;22.20;;;21.10;;
7583;SDS011;3833;41.764;26.204;2023-01-28T10:06:53;28.33;;;27.00;;
7583;SDS011;3833;41.764;26.204;2023-01-28T10:09:30;31.37;;;30.07;;
7583;SDS011;3833;41.764;26.204;2023-01-28T10:12:11;29.70;;;28.00;;
7583;SDS011;3833;41.764;26.204;2023-01-28T10:14:53;29.07;;;27.77;;
7583;SDS011;3833;41.764;26.204;2023-01-28T10:17:29;21.97;;;21.07;;
7583;SDS011;3833;41.764;26.204;2023-01-28T10:20:03;20.57;;;19.60;;
7583;SDS011;3833;41.764;26.204;2023-01-28T10:22:34;21.03;;;19.93;;
7583;SDS011;3833;41.764;26.204;2023-01-28T10:25:06;20.33;;;18.93;;
7583;SDS011;3833;41.764;26.204;2023-01-28T10:27:43;23.40;;;21.80;;
7583;SDS011;3833;41.764;26.204;2023-01-28T10:30:15;17.50;;;16.70;;
7583;SDS011;3833;41.764;26.204;2023-01-28T10:32:45;22.30;;;21.40;;
7583;SDS011;3833;41.764;26.204;2023-01-28T10:35:18;23.87;;;22.87;;
7583;SDS011;3833;41.764;26.204;2023-01-28T10:37:45;18.80;;;17.80;;
7583;SDS011;3833;41.764;26.204;2023-01-28T10:40:13;20.50;;;19.43;;
7583;SDS011;3833;41.764;26.204;2023-01-28T10:42:41;20.23;;;19.33;;
7583;SDS011;3833;41.764;26.204;2023-01-28T10:45:13;22.20;;;21.30;;
7583;SDS011;3833;41.764;26.204;2023-01-28T10:47:44;22.13;;;20.93;;
7583;SDS011;3833;41.764;26.204;2023-01-28T10:50:14;22.10;;;21.00;;
7583;SDS011;3833;41.764;26.204;2023-01-28T10:52:53;25.67;;;24.27;;
7583;SDS011;3833;41.764;26.204;2023-01-28T10:55:21;35.23;;;33.13;;
7583;SDS011;3833;41.764;26.204;2023-01-28T10:57:49;39.87;;;38.07;;
7583;SDS011;3833;41.764;26.204;2023-01-28T11:00:21;37.07;;;35.47;;
7583;SDS011;3833;41.764;26.204;2023-01-28T11:02:49;19.40;;;18.60;;
7583;SDS011;3833;41.764;26.204;2023-01-28T11:05:18;15.67;;;14.17;;
7583;SDS011;3833;41.764;26.204;2023-01-28T11:07:50;21.73;;;20.23;;
7583;SDS011;3833;41.764;26.204;2023-01-28T11:10:28;39.80;;;37.50;;
7583;SDS011;3833;41.764;26.204;2023-01-28T11:12:59;42.43;;;39.37;;
7583;SDS011;3833;41.764;26.204;2023-01-28T11:15:26;38.70;;;36.40;;
7583;SDS011;3833;41.764;26.204;2023-01-28T11:17:54;53.80;;;48.67;;
7583;SDS011;3833;41.764;26.204;2023-01-28T11:20:25;43.27;;;39.50;;
7583;SDS011;3833;41.764;26.204;2023-01-28T11:22:54;38.17;;;35.57;;
7583;SDS011;3833;41.764;26.204;2023-01-28T11:25:25;32.00;;;30.60;;
7583;SDS011;3833;41.764;26.204;2023-01-28T11:27:55;23.70;;;22.70;;
7583;SDS011;3833;41.764;26.204;2023-01-28T11:30:25;21.73;;;20.43;;
7583;SDS011;3833;41.764;26.204;2023-01-28T11:32:57;14.00;;;13.30;;
7583;SDS011;3833;41.764;26.204;2023-01-28T11:35:32;25.47;;;23.37;;
7583;SDS011;3833;41.764;26.204;2023-01-28T11:37:59;21.97;;;20.67;;
7583;SDS011;3833;41.764;26.204;2023-01-28T11:40:26;20.93;;;19.93;;
7583;SDS011;3833;41.764;26.204;2023-01-28T11:42:54;21.63;;;20.73;;
7583;SDS011;3833;41.764;26.204;2023-01-28T11:45:24;19.60;;;18.70;;
7583;SDS011;3833;41.764;26.204;2023-01-28T11:48:10;21.67;;;20.73;;
7583;SDS011;3833;41.764;26.204;2023-01-28T11:50:51;28.20;;;26.80;;
7583;SDS011;3833;41.764;26.204;2023-01-28T11:53:31;27.97;;;26.77;;
7583;SDS011;3833;41.764;26.204;2023-01-28T11:59:15;29.47;;;28.07;;
7583;SDS011;3833;41.764;26.204;2023-01-28T12:01:55;24.37;;;23.37;;
7583;SDS011;3833;41.764;26.204;2023-01-28T12:04:37;27.40;;;26.30;;
7583;SDS011;3833;41.764;26.204;2023-01-28T12:07:21;28.10;;;27.07;;
7583;SDS011;3833;41.764;26.204;2023-01-28T12:10:00;21.70;;;20.70;;
7583;SDS011;3833;41.764;26.204;2023-01-28T12:12:37;26.20;;;24.83;;
7583;SDS011;3833;41.764;26.204;2023-01-28T12:21:28;30.33;;;28.60;;
7583;SDS011;3833;41.764;26.204;2023-01-28T12:24:11;25.23;;;23.93;;
7583;SDS011;3833;41.764;26.204;2023-01-28T12:26:49;21.80;;;20.90;;
7583;SDS011;3833;41.764;26.204;2023-01-28T12:29:26;24.10;;;22.90;;
7583;SDS011;3833;41.764;26.204;2023-01-28T12:32:15;23.23;;;22.13;;
7583;SDS011;3833;41.764;26.204;2023-01-28T12:37:59;23.17;;;21.97;;
7583;SDS011;3833;41.764;26.204;2023-01-28T12:40:45;15.47;;;14.77;;
7583;SDS011;3833;41.764;26.204;2023-01-28T12:43:19;18.33;;;17.53;;
7583;SDS011;3833;41.764;26.204;2023-01-28T12:45:53;23.43;;;22.50;;
7583;SDS011;3833;41.764;26.204;2023-01-28T12:48:25;23.10;;;22.10;;
7583;SDS011;3833;41.764;26.204;2023-01-28T12:50:59;21.83;;;20.93;;
7583;SDS011;3833;41.764;26.204;2023-01-28T12:53:31;24.47;;;23.40;;
7583;SDS011;3833;41.764;26.204;2023-01-28T12:56:07;14.80;;;14.10;;
7583;SDS011;3833;41.764;26.204;2023-01-28T12:58:41;18.30;;;17.10;;
7583;SDS011;3833;41.764;26.204;2023-01-28T13:01:14;26.57;;;25.47;;
7583;SDS011;3833;41.764;26.204;2023-01-28T13:03:48;23.93;;;23.03;;
7583;SDS011;3833;41.764;26.204;2023-01-28T13:06:21;23.73;;;22.63;;
7583;SDS011;3833;41.764;26.204;2023-01-28T13:08:57;29.13;;;28.03;;
7583;SDS011;3833;41.764;26.204;2023-01-28T13:11:31;37.63;;;36.10;;
7583;SDS011;3833;41.764;26.204;2023-01-28T13:14:00;36.83;;;35.23;;
7583;SDS011;3833;41.764;26.204;2023-01-28T13:16:30;36.43;;;34.63;;
7583;SDS011;3833;41.764;26.204;2023-01-28T13:19:04;35.80;;;34.00;;
7583;SDS011;3833;41.764;26.204;2023-01-28T13:21:33;36.03;;;34.13;;
7583;SDS011;3833;41.764;26.204;2023-01-28T13:24:05;17.63;;;16.53;;
7583;SDS011;3833;41.764;26.204;2023-01-28T13:26:47;14.80;;;13.70;;
7583;SDS011;3833;41.764;26.204;2023-01-28T13:29:19;12.43;;;11.43;;
7583;SDS011;3833;41.764;26.204;2023-01-28T13:31:54;15.00;;;14.03;;
7583;SDS011;3833;41.764;26.204;2023-01-28T13:34:28;12.90;;;12.10;;
7583;SDS011;3833;41.764;26.204;2023-01-28T13:37:04;21.83;;;20.70;;
7583;SDS011;3833;41.764;26.204;2023-01-28T13:39:45;19.67;;;18.57;;
7583;SDS011;3833;41.764;26.204;2023-01-28T13:42:24;13.37;;;12.57;;
7583;SDS011;3833;41.764;26.204;2023-01-28T13:44:52;13.93;;;12.93;;
7583;SDS011;3833;41.764;26.204;2023-01-28T13:47:21;12.10;;;11.03;;
7583;SDS011;3833;41.764;26.204;2023-01-28T13:49:56;14.33;;;13.07;;
7583;SDS011;3833;41.764;26.204;2023-01-28T13:52:27;12.37;;;11.17;;
7583;SDS011;3833;41.764;26.204;2023-01-28T13:54:59;12.63;;;11.43;;
7583;SDS011;3833;41.764;26.204;2023-01-28T13:57:45;9.60;;;8.70;;
7583;SDS011;3833;41.764;26.204;2023-01-28T14:00:45;12.60;;;10.70;;
7583;SDS011;3833;41.764;26.204;2023-01-28T14:03:34;24.17;;;19.30;;
7583;SDS011;3833;41.764;26.204;2023-01-28T14:09:16;9.33;;;8.53;;
7583;SDS011;3833;41.764;26.204;2023-01-28T14:15:07;14.37;;;13.07;;
7583;SDS011;3833;41.764;26.204;2023-01-28T14:17:44;12.37;;;11.53;;
7583;SDS011;3833;41.764;26.204;2023-01-28T14:20:15;12.43;;;11.23;;
7583;SDS011;3833;41.764;26.204;2023-01-28T14:22:45;12.83;;;10.77;;
7583;SDS011;3833;41.764;26.204;2023-01-28T14:25:13;17.37;;;13.23;;
7583;SDS011;3833;41.764;26.204;2023-01-28T14:27:44;22.20;;;17.70;;
7583;SDS011;3833;41.764;26.204;2023-01-28T14:30:19;9.50;;;8.70;;
7583;SDS011;3833;41.764;26.204;2023-01-28T14:32:52;17.10;;;15.67;;
7583;SDS011;3833;41.764;26.204;2023-01-28T14:35:23;14.00;;;12.83;;
7583;SDS011;3833;41.764;26.204;2023-01-28T14:37:53;15.43;;;14.13;;
7583;SDS011;3833;41.764;26.204;2023-01-28T14:40:21;12.73;;;11.87;;
7583;SDS011;3833;41.764;26.204;2023-01-28T14:42:50;10.20;;;9.40;;
7583;SDS011;3833;41.764;26.204;2023-01-28T14:45:28;11.10;;;9.93;;
7583;SDS011;3833;41.764;26.204;2023-01-28T14:48:10;22.43;;;19.47;;
7583;SDS011;3833;41.764;26.204;2023-01-28T14:50:51;11.57;;;10.00;;
7583;SDS011;3833;41.764;26.204;2023-01-28T14:53:46;19.93;;;15.23;;
7583;SDS011;3833;41.764;26.204;2023-01-28T14:56:27;11.43;;;9.93;;
7583;SDS011;3833;41.764;26.204;2023-01-28T14:59:05;14.70;;;12.40;;
7583;SDS011;3833;41.764;26.204;2023-01-28T15:01:44;13.00;;;11.33;;
7583;SDS011;3833;41.764;26.204;2023-01-28T15:04:24;19.10;;;17.30;;
7583;SDS011;3833;41.764;26.204;2023-01-28T15:06:53;21.17;;;19.00;;
7583;SDS011;3833;41.764;26.204;2023-01-28T15:09:21;22.80;;;21.00;;
7583;SDS011;3833;41.764;26.204;2023-01-28T15:11:49;29.40;;;26.70;;
7583;SDS011;3833;41.764;26.204;2023-01-28T15:14:23;18.43;;;15.77;;
7583;SDS011;3833;41.764;26.204;2023-01-28T15:16:53;19.80;;;17.90;;
7583;SDS011;3833;41.764;26.204;2023-01-28T15:19:23;21.63;;;19.43;;
7583;SDS011;3833;41.764;26.204;2023-01-28T15:21:53;23.47;;;21.20;;
7583;SDS011;3833;41.764;26.204;2023-01-28T15:24:21;25.13;;;22.67;;
7583;SDS011;3833;41.764;26.204;2023-01-28T15:26:49;24.93;;;22.30;;
7583;SDS011;3833;41.764;26.204;2023-01-28T15:29:22;18.80;;;16.97;;
7583;SDS011;3833;41.764;26.204;2023-01-28T15:31:50;44.40;;;32.73;;
7583;SDS011;3833;41.764;26.204;2023-01-28T15:34:19;20.97;;;18.83;;